sensor_id;sensor_type;location;lat;lon;timestamp;P1;durP1;ratioP1;P2;durP2;ratioP2
27566;SDS011;15006;48.584;9.186;2023-06-19T00:01:25;4.65;;;4.40;;
27566;SDS011;15006;48.584;9.186;2023-06-19T00:03:52;5.57;;;5.10;;
27566;SDS011;15006;48.584;9.186;2023-06-19T00:06:18;5.68;;;5.25;;
27566;SDS011;15006;48.584;9.186;2023-06-19T00:08:44;5.47;;;4.95;;
27566;SDS011;15006;48.584;9.186;2023-06-19T00:11:10;5.25;;;4.75;;
27566;SDS011;15006;48.584;9.186;2023-06-19T00:13:36;5.22;;;4.68;;
27566;SDS011;15006;48.584;9.186;2023-06-19T00:16:02;5.00;;;4.63;;
27566;SDS011;15006;48.584;9.186;2023-06-19T00:18:28;5.40;;;5.00;;
27566;SDS011;15006;48.584;9.186;2023-06-19T00:20:55;5.20;;;4.80;;
27566;SDS011;15006;48.584;9.186;2023-06-19T00:23:22;5.45;;;4.55;;
27566;SDS011;15006;48.584;9.186;2023-06-19T00:25:48;6.45;;;4.88;;
27566;SDS011;15006;48.584;9.186;2023-06-19T00:28:14;5.80;;;5.30;;
27566;SDS011;15006;48.584;9.186;2023-06-19T00:33:11;4.70;;;4.40;;
27566;SDS011;15006;48.584;9.186;2023-06-19T00:35:37;5.18;;;4.88;;
27566;SDS011;15006;48.584;9.186;2023-06-19T00:38:04;5.75;;;5.32;;
27566;SDS011;15006;48.584;9.186;2023-06-19T00:40:31;9.32;;;4.95;;
27566;SDS011;15006;48.584;9.186;2023-06-19T00:42:59;5.22;;;4.93;;
27566;SDS011;15006;48.584;9.186;2023-06-19T00:45:26;5.38;;;5.07;;
27566;SDS011;15006;48.584;9.186;2023-06-19T00:47:53;5.40;;;5.00;;
27566;SDS011;15006;48.584;9.186;2023-06-19T00:50:20;5.47;;;5.00;;
27566;SDS011;15006;48.584;9.186;2023-06-19T00:52:49;5.05;;;4.65;;
27566;SDS011;15006;48.584;9.186;2023-06-19T00:55:15;5.40;;;5.00;;
27566;SDS011;15006;48.584;9.186;2023-06-19T00:57:43;5.25;;;4.75;;
27566;SDS011;15006;48.584;9.186;2023-06-19T01:00:10;5.55;;;5.15;;
27566;SDS011;15006;48.584;9.186;2023-06-19T01:02:38;5.18;;;4.80;;
27566;SDS011;15006;48.584;9.186;2023-06-19T01:05:04;6.45;;;5.05;;
27566;SDS011;15006;48.584;9.186;2023-06-19T01:07:44;4.60;;;4.30;;
27566;SDS011;15006;48.584;9.186;2023-06-19T01:10:38;4.90;;;4.70;;
27566;SDS011;15006;48.584;9.186;2023-06-19T01:13:12;5.18;;;4.78;;
27566;SDS011;15006;48.584;9.186;2023-06-19T01:16:06;5.40;;;5.03;;
27566;SDS011;15006;48.584;9.186;2023-06-19T01:18:33;5.35;;;5.05;;
27566;SDS011;15006;48.584;9.186;2023-06-19T01:23:54;7.90;;;5.00;;
27566;SDS011;15006;48.584;9.186;2023-06-19T01:26:21;5.25;;;4.93;;
27566;SDS011;15006;48.584;9.186;2023-06-19T01:28:52;5.25;;;4.85;;
27566;SDS011;15006;48.584;9.186;2023-06-19T01:31:20;5.95;;;5.38;;
27566;SDS011;15006;48.584;9.186;2023-06-19T01:33:51;6.40;;;6.00;;
27566;SDS011;15006;48.584;9.186;2023-06-19T01:36:19;10.15;;;5.43;;
27566;SDS011;15006;48.584;9.186;2023-06-19T01:38:47;7.88;;;5.55;;
27566;SDS011;15006;48.584;9.186;2023-06-19T01:41:15;5.88;;;5.47;;
27566;SDS011;15006;48.584;9.186;2023-06-19T01:43:41;5.53;;;5.22;;
27566;SDS011;15006;48.584;9.186;2023-06-19T01:46:08;5.90;;;5.50;;
27566;SDS011;15006;48.584;9.186;2023-06-19T01:48:35;5.88;;;5.47;;
27566;SDS011;15006;48.584;9.186;2023-06-19T01:51:03;7.15;;;5.50;;
27566;SDS011;15006;48.584;9.186;2023-06-19T01:53:31;5.60;;;5.30;;
27566;SDS011;15006;48.584;9.186;2023-06-19T01:55:58;5.25;;;4.85;;
27566;SDS011;15006;48.584;9.186;2023-06-19T01:58:24;5.72;;;5.20;;
27566;SDS011;15006;48.584;9.186;2023-06-19T02:00:50;5.35;;;5.05;;
27566;SDS011;15006;48.584;9.186;2023-06-19T02:03:16;5.60;;;5.20;;
27566;SDS011;15006;48.584;9.186;2023-06-19T02:05:42;5.57;;;5.28;;
27566;SDS011;15006;48.584;9.186;2023-06-19T02:08:08;5.47;;;5.05;;
27566;SDS011;15006;48.584;9.186;2023-06-19T02:10:34;5.25;;;4.95;;
27566;SDS011;15006;48.584;9.186;2023-06-19T02:13:00;4.70;;;4.45;;
27566;SDS011;15006;48.584;9.186;2023-06-19T02:15:26;5.10;;;4.60;;
27566;SDS011;15006;48.584;9.186;2023-06-19T02:17:54;4.88;;;4.57;;
27566;SDS011;15006;48.584;9.186;2023-06-19T02:20:24;6.75;;;4.63;;
27566;SDS011;15006;48.584;9.186;2023-06-19T02:22:50;4.47;;;4.18;;
27566;SDS011;15006;48.584;9.186;2023-06-19T02:25:17;4.40;;;4.10;;
27566;SDS011;15006;48.584;9.186;2023-06-19T02:27:43;4.47;;;4.05;;
27566;SDS011;15006;48.584;9.186;2023-06-19T02:30:09;4.10;;;3.90;;
27566;SDS011;15006;48.584;9.186;2023-06-19T02:32:36;4.82;;;3.83;;
27566;SDS011;15006;48.584;9.186;2023-06-19T02:35:03;3.90;;;3.65;;
27566;SDS011;15006;48.584;9.186;2023-06-19T02:37:34;4.07;;;3.78;;
27566;SDS011;15006;48.584;9.186;2023-06-19T02:40:04;4.68;;;4.28;;
27566;SDS011;15006;48.584;9.186;2023-06-19T02:42:30;4.78;;;4.38;;
27566;SDS011;15006;48.584;9.186;2023-06-19T02:44:56;4.60;;;4.30;;
27566;SDS011;15006;48.584;9.186;2023-06-19T02:47:29;5.53;;;5.03;;
27566;SDS011;15006;48.584;9.186;2023-06-19T02:50:00;4.82;;;4.63;;
27566;SDS011;15006;48.584;9.186;2023-06-19T02:52:27;4.93;;;4.63;;
27566;SDS011;15006;48.584;9.186;2023-06-19T02:54:53;5.55;;;4.85;;
27566;SDS011;15006;48.584;9.186;2023-06-19T02:57:19;4.85;;;4.45;;
27566;SDS011;15006;48.584;9.186;2023-06-19T02:59:45;4.80;;;4.50;;
27566;SDS011;15006;48.584;9.186;2023-06-19T03:02:12;5.20;;;4.78;;
27566;SDS011;15006;48.584;9.186;2023-06-19T03:04:39;4.70;;;4.40;;
27566;SDS011;15006;48.584;9.186;2023-06-19T03:07:06;4.82;;;4.63;;
27566;SDS011;15006;48.584;9.186;2023-06-19T03:09:32;4.82;;;4.57;;
27566;SDS011;15006;48.584;9.186;2023-06-19T03:11:58;4.60;;;4.30;;
27566;SDS011;15006;48.584;9.186;2023-06-19T03:14:24;4.85;;;4.45;;
27566;SDS011;15006;48.584;9.186;2023-06-19T03:16:50;4.55;;;4.35;;
27566;SDS011;15006;48.584;9.186;2023-06-19T03:19:16;4.47;;;4.18;;
27566;SDS011;15006;48.584;9.186;2023-06-19T03:21:42;6.30;;;4.60;;
27566;SDS011;15006;48.584;9.186;2023-06-19T03:24:08;5.10;;;4.50;;
27566;SDS011;15006;48.584;9.186;2023-06-19T03:26:34;4.50;;;4.20;;
27566;SDS011;15006;48.584;9.186;2023-06-19T03:29:00;4.05;;;3.88;;
27566;SDS011;15006;48.584;9.186;2023-06-19T03:31:26;4.70;;;4.40;;
27566;SDS011;15006;48.584;9.186;2023-06-19T03:33:52;4.78;;;4.40;;
27566;SDS011;15006;48.584;9.186;2023-06-19T03:36:18;4.63;;;4.25;;
27566;SDS011;15006;48.584;9.186;2023-06-19T03:38:44;4.43;;;4.13;;
27566;SDS011;15006;48.584;9.186;2023-06-19T03:41:10;5.43;;;4.40;;
27566;SDS011;15006;48.584;9.186;2023-06-19T03:43:36;8.52;;;4.25;;
27566;SDS011;15006;48.584;9.186;2023-06-19T03:46:02;4.53;;;4.22;;
27566;SDS011;15006;48.584;9.186;2023-06-19T03:48:28;4.68;;;4.38;;
27566;SDS011;15006;48.584;9.186;2023-06-19T03:50:54;4.72;;;4.43;;
27566;SDS011;15006;48.584;9.186;2023-06-19T03:53:20;4.43;;;4.22;;
27566;SDS011;15006;48.584;9.186;2023-06-19T03:55:47;4.68;;;4.28;;
27566;SDS011;15006;48.584;9.186;2023-06-19T03:58:13;4.97;;;4.68;;
27566;SDS011;15006;48.584;9.186;2023-06-19T04:00:39;4.28;;;4.07;;
27566;SDS011;15006;48.584;9.186;2023-06-19T04:03:06;4.78;;;4.47;;
27566;SDS011;15006;48.584;9.186;2023-06-19T04:05:34;4.60;;;4.40;;
27566;SDS011;15006;48.584;9.186;2023-06-19T04:08:00;5.00;;;4.50;;
27566;SDS011;15006;48.584;9.186;2023-06-19T04:10:26;4.57;;;4.28;;
27566;SDS011;15006;48.584;9.186;2023-06-19T04:12:52;4.40;;;4.20;;
27566;SDS011;15006;48.584;9.186;2023-06-19T04:15:21;4.03;;;3.63;;
27566;SDS011;15006;48.584;9.186;2023-06-19T04:17:48;3.80;;;3.60;;
27566;SDS011;15006;48.584;9.186;2023-06-19T04:20:14;3.00;;;2.90;;
27566;SDS011;15006;48.584;9.186;2023-06-19T04:22:41;5.45;;;3.40;;
27566;SDS011;15006;48.584;9.186;2023-06-19T04:25:07;3.13;;;2.83;;
27566;SDS011;15006;48.584;9.186;2023-06-19T04:27:35;2.95;;;2.85;;
27566;SDS011;15006;48.584;9.186;2023-06-19T04:30:02;3.25;;;3.05;;
27566;SDS011;15006;48.584;9.186;2023-06-19T04:32:30;2.92;;;2.70;;
27566;SDS011;15006;48.584;9.186;2023-06-19T04:34:56;3.42;;;3.17;;
27566;SDS011;15006;48.584;9.186;2023-06-19T04:37:22;3.05;;;2.88;;
27566;SDS011;15006;48.584;9.186;2023-06-19T04:39:48;5.35;;;3.22;;
27566;SDS011;15006;48.584;9.186;2023-06-19T04:42:16;2.70;;;2.60;;
27566;SDS011;15006;48.584;9.186;2023-06-19T04:44:47;2.90;;;2.80;;
27566;SDS011;15006;48.584;9.186;2023-06-19T04:47:14;3.15;;;2.95;;
27566;SDS011;15006;48.584;9.186;2023-06-19T04:49:42;5.00;;;3.15;;
27566;SDS011;15006;48.584;9.186;2023-06-19T04:52:08;3.75;;;2.65;;
27566;SDS011;15006;48.584;9.186;2023-06-19T04:54:34;3.40;;;3.20;;
27566;SDS011;15006;48.584;9.186;2023-06-19T04:57:00;3.50;;;3.20;;
27566;SDS011;15006;48.584;9.186;2023-06-19T04:59:27;3.58;;;3.38;;
27566;SDS011;15006;48.584;9.186;2023-06-19T05:01:53;3.63;;;3.35;;
27566;SDS011;15006;48.584;9.186;2023-06-19T05:04:22;3.47;;;3.28;;
27566;SDS011;15006;48.584;9.186;2023-06-19T05:06:50;3.53;;;3.30;;
27566;SDS011;15006;48.584;9.186;2023-06-19T05:09:16;3.60;;;3.40;;
27566;SDS011;15006;48.584;9.186;2023-06-19T05:11:42;3.67;;;3.47;;
27566;SDS011;15006;48.584;9.186;2023-06-19T05:14:09;3.67;;;3.30;;
27566;SDS011;15006;48.584;9.186;2023-06-19T05:16:35;4.13;;;3.78;;
27566;SDS011;15006;48.584;9.186;2023-06-19T05:19:01;4.25;;;3.60;;
27566;SDS011;15006;48.584;9.186;2023-06-19T05:21:27;3.35;;;3.17;;
27566;SDS011;15006;48.584;9.186;2023-06-19T05:23:53;3.72;;;3.53;;
27566;SDS011;15006;48.584;9.186;2023-06-19T05:26:19;3.78;;;3.38;;
27566;SDS011;15006;48.584;9.186;2023-06-19T05:28:46;3.75;;;3.55;;
27566;SDS011;15006;48.584;9.186;2023-06-19T05:31:12;3.65;;;3.40;;
27566;SDS011;15006;48.584;9.186;2023-06-19T05:33:38;4.18;;;3.90;;
27566;SDS011;15006;48.584;9.186;2023-06-19T05:36:05;3.67;;;3.47;;
27566;SDS011;15006;48.584;9.186;2023-06-19T05:38:31;4.93;;;3.30;;
27566;SDS011;15006;48.584;9.186;2023-06-19T05:40:57;3.80;;;3.60;;
27566;SDS011;15006;48.584;9.186;2023-06-19T05:43:24;3.58;;;3.38;;
27566;SDS011;15006;48.584;9.186;2023-06-19T05:45:50;3.17;;;3.03;;
27566;SDS011;15006;48.584;9.186;2023-06-19T05:48:17;3.30;;;3.13;;
27566;SDS011;15006;48.584;9.186;2023-06-19T05:50:43;3.00;;;2.90;;
27566;SDS011;15006;48.584;9.186;2023-06-19T05:53:09;2.88;;;2.78;;
27566;SDS011;15006;48.584;9.186;2023-06-19T05:55:35;2.88;;;2.78;;
27566;SDS011;15006;48.584;9.186;2023-06-19T05:58:02;3.03;;;2.83;;
27566;SDS011;15006;48.584;9.186;2023-06-19T06:00:29;2.92;;;2.83;;
27566;SDS011;15006;48.584;9.186;2023-06-19T06:02:56;5.15;;;2.90;;
27566;SDS011;15006;48.584;9.186;2023-06-19T06:05:25;5.60;;;2.70;;
27566;SDS011;15006;48.584;9.186;2023-06-19T06:07:52;3.50;;;3.30;;
27566;SDS011;15006;48.584;9.186;2023-06-19T06:10:19;2.88;;;2.78;;
27566;SDS011;15006;48.584;9.186;2023-06-19T06:12:47;2.65;;;2.55;;
27566;SDS011;15006;48.584;9.186;2023-06-19T06:15:14;3.38;;;2.80;;
27566;SDS011;15006;48.584;9.186;2023-06-19T06:17:40;2.97;;;2.78;;
27566;SDS011;15006;48.584;9.186;2023-06-19T06:20:07;2.80;;;2.70;;
27566;SDS011;15006;48.584;9.186;2023-06-19T06:22:40;5.22;;;2.63;;
27566;SDS011;15006;48.584;9.186;2023-06-19T06:25:07;2.50;;;2.40;;
27566;SDS011;15006;48.584;9.186;2023-06-19T06:27:35;2.63;;;2.53;;
27566;SDS011;15006;48.584;9.186;2023-06-19T06:30:02;2.70;;;2.60;;
27566;SDS011;15006;48.584;9.186;2023-06-19T06:32:30;2.50;;;2.30;;
27566;SDS011;15006;48.584;9.186;2023-06-19T06:34:57;2.28;;;2.08;;
27566;SDS011;15006;48.584;9.186;2023-06-19T06:37:24;2.40;;;2.30;;
27566;SDS011;15006;48.584;9.186;2023-06-19T06:39:50;2.20;;;2.10;;
27566;SDS011;15006;48.584;9.186;2023-06-19T06:42:16;2.85;;;2.38;;
27566;SDS011;15006;48.584;9.186;2023-06-19T06:44:43;2.22;;;2.10;;
27566;SDS011;15006;48.584;9.186;2023-06-19T06:47:09;2.20;;;2.00;;
27566;SDS011;15006;48.584;9.186;2023-06-19T06:49:35;2.33;;;2.13;;
27566;SDS011;15006;48.584;9.186;2023-06-19T06:52:04;2.03;;;1.92;;
27566;SDS011;15006;48.584;9.186;2023-06-19T06:54:31;2.53;;;2.22;;
27566;SDS011;15006;48.584;9.186;2023-06-19T06:56:57;2.35;;;2.15;;
27566;SDS011;15006;48.584;9.186;2023-06-19T06:59:25;2.13;;;2.00;;
27566;SDS011;15006;48.584;9.186;2023-06-19T07:01:52;3.53;;;1.98;;
27566;SDS011;15006;48.584;9.186;2023-06-19T07:04:19;2.10;;;2.00;;
27566;SDS011;15006;48.584;9.186;2023-06-19T07:06:45;2.10;;;2.00;;
27566;SDS011;15006;48.584;9.186;2023-06-19T07:09:11;1.92;;;1.83;;
27566;SDS011;15006;48.584;9.186;2023-06-19T07:11:37;2.35;;;2.15;;
27566;SDS011;15006;48.584;9.186;2023-06-19T07:14:03;2.88;;;1.98;;
27566;SDS011;15006;48.584;9.186;2023-06-19T07:16:29;2.30;;;2.20;;
27566;SDS011;15006;48.584;9.186;2023-06-19T07:18:55;2.10;;;2.00;;
27566;SDS011;15006;48.584;9.186;2023-06-19T07:21:21;2.05;;;1.95;;
27566;SDS011;15006;48.584;9.186;2023-06-19T07:23:47;2.10;;;2.00;;
27566;SDS011;15006;48.584;9.186;2023-06-19T07:26:13;2.83;;;2.60;;
27566;SDS011;15006;48.584;9.186;2023-06-19T07:28:40;2.25;;;2.15;;
27566;SDS011;15006;48.584;9.186;2023-06-19T07:31:07;4.10;;;2.10;;
27566;SDS011;15006;48.584;9.186;2023-06-19T07:33:33;2.03;;;1.92;;
27566;SDS011;15006;48.584;9.186;2023-06-19T07:36:00;2.10;;;2.00;;
27566;SDS011;15006;48.584;9.186;2023-06-19T07:38:29;2.23;;;2.13;;
27566;SDS011;15006;48.584;9.186;2023-06-19T07:40:55;2.30;;;2.20;;
27566;SDS011;15006;48.584;9.186;2023-06-19T07:43:21;2.20;;;2.10;;
27566;SDS011;15006;48.584;9.186;2023-06-19T07:45:48;2.10;;;2.00;;
27566;SDS011;15006;48.584;9.186;2023-06-19T07:48:15;2.33;;;2.22;;
27566;SDS011;15006;48.584;9.186;2023-06-19T07:50:41;2.35;;;2.00;;
27566;SDS011;15006;48.584;9.186;2023-06-19T07:53:07;2.35;;;2.20;;
27566;SDS011;15006;48.584;9.186;2023-06-19T07:55:33;2.03;;;1.92;;
27566;SDS011;15006;48.584;9.186;2023-06-19T07:58:00;8.02;;;2.13;;
27566;SDS011;15006;48.584;9.186;2023-06-19T08:00:27;2.05;;;1.95;;
27566;SDS011;15006;48.584;9.186;2023-06-19T08:02:53;2.63;;;1.90;;
27566;SDS011;15006;48.584;9.186;2023-06-19T08:05:19;2.00;;;1.90;;
27566;SDS011;15006;48.584;9.186;2023-06-19T08:07:45;2.10;;;2.00;;
27566;SDS011;15006;48.584;9.186;2023-06-19T08:10:11;2.03;;;1.92;;
27566;SDS011;15006;48.584;9.186;2023-06-19T08:12:38;2.25;;;2.05;;
27566;SDS011;15006;48.584;9.186;2023-06-19T08:15:06;2.22;;;2.13;;
27566;SDS011;15006;48.584;9.186;2023-06-19T08:17:32;2.10;;;2.00;;
27566;SDS011;15006;48.584;9.186;2023-06-19T08:19:59;2.03;;;1.92;;
27566;SDS011;15006;48.584;9.186;2023-06-19T08:22:26;1.95;;;1.80;;
27566;SDS011;15006;48.584;9.186;2023-06-19T08:24:52;2.10;;;2.00;;
27566;SDS011;15006;48.584;9.186;2023-06-19T08:27:18;3.08;;;1.83;;
27566;SDS011;15006;48.584;9.186;2023-06-19T08:29:44;2.30;;;2.20;;
27566;SDS011;15006;48.584;9.186;2023-06-19T08:32:10;3.08;;;2.17;;
27566;SDS011;15006;48.584;9.186;2023-06-19T08:34:36;2.10;;;2.00;;
27566;SDS011;15006;48.584;9.186;2023-06-19T08:37:03;2.33;;;2.13;;
27566;SDS011;15006;48.584;9.186;2023-06-19T08:39:31;1.80;;;1.63;;
27566;SDS011;15006;48.584;9.186;2023-06-19T08:41:57;1.88;;;1.77;;
27566;SDS011;15006;48.584;9.186;2023-06-19T08:44:23;1.75;;;1.65;;
27566;SDS011;15006;48.584;9.186;2023-06-19T08:46:49;2.65;;;1.85;;
27566;SDS011;15006;48.584;9.186;2023-06-19T08:49:15;1.75;;;1.65;;
27566;SDS011;15006;48.584;9.186;2023-06-19T08:51:41;1.60;;;1.50;;
27566;SDS011;15006;48.584;9.186;2023-06-19T08:54:07;1.92;;;1.83;;
27566;SDS011;15006;48.584;9.186;2023-06-19T08:56:34;1.75;;;1.70;;
27566;SDS011;15006;48.584;9.186;2023-06-19T08:59:15;1.90;;;1.80;;
27566;SDS011;15006;48.584;9.186;2023-06-19T09:01:47;2.58;;;2.00;;
27566;SDS011;15006;48.584;9.186;2023-06-19T09:04:17;2.22;;;2.13;;
27566;SDS011;15006;48.584;9.186;2023-06-19T09:09:24;2.00;;;1.90;;
27566;SDS011;15006;48.584;9.186;2023-06-19T09:12:01;2.10;;;2.00;;
27566;SDS011;15006;48.584;9.186;2023-06-19T09:17:01;2.67;;;1.60;;
27566;SDS011;15006;48.584;9.186;2023-06-19T09:19:29;1.38;;;1.38;;
27566;SDS011;15006;48.584;9.186;2023-06-19T09:22:05;1.10;;;1.10;;
27566;SDS011;15006;48.584;9.186;2023-06-19T09:24:37;0.98;;;0.98;;
27566;SDS011;15006;48.584;9.186;2023-06-19T09:27:10;0.73;;;0.73;;
27566;SDS011;15006;48.584;9.186;2023-06-19T09:29:44;1.67;;;0.95;;
27566;SDS011;15006;48.584;9.186;2023-06-19T09:32:22;1.10;;;0.93;;
27566;SDS011;15006;48.584;9.186;2023-06-19T09:34:52;1.17;;;1.00;;
27566;SDS011;15006;48.584;9.186;2023-06-19T09:37:24;0.88;;;0.88;;
27566;SDS011;15006;48.584;9.186;2023-06-19T09:39:56;0.60;;;0.60;;
27566;SDS011;15006;48.584;9.186;2023-06-19T09:42:29;0.80;;;0.80;;
27566;SDS011;15006;48.584;9.186;2023-06-19T09:44:59;0.70;;;0.70;;
27566;SDS011;15006;48.584;9.186;2023-06-19T09:47:30;0.75;;;0.75;;
27566;SDS011;15006;48.584;9.186;2023-06-19T09:50:01;0.80;;;0.80;;
27566;SDS011;15006;48.584;9.186;2023-06-19T09:52:29;0.77;;;0.70;;
27566;SDS011;15006;48.584;9.186;2023-06-19T09:54:55;0.70;;;0.70;;
27566;SDS011;15006;48.584;9.186;2023-06-19T09:57:23;0.70;;;0.70;;
27566;SDS011;15006;48.584;9.186;2023-06-19T09:59:50;0.65;;;0.60;;
27566;SDS011;15006;48.584;9.186;2023-06-19T10:04:51;0.57;;;0.57;;
27566;SDS011;15006;48.584;9.186;2023-06-19T10:07:23;0.60;;;0.60;;
27566;SDS011;15006;48.584;9.186;2023-06-19T10:12:39;0.70;;;0.70;;
27566;SDS011;15006;48.584;9.186;2023-06-19T10:15:08;0.80;;;0.80;;
27566;SDS011;15006;48.584;9.186;2023-06-19T10:17:42;0.60;;;0.60;;
27566;SDS011;15006;48.584;9.186;2023-06-19T10:20:35;0.70;;;0.70;;
27566;SDS011;15006;48.584;9.186;2023-06-19T10:23:06;0.80;;;0.80;;
27566;SDS011;15006;48.584;9.186;2023-06-19T10:25:44;1.75;;;1.02;;
27566;SDS011;15006;48.584;9.186;2023-06-19T10:35:53;0.70;;;0.70;;
27566;SDS011;15006;48.584;9.186;2023-06-19T10:38:20;0.93;;;0.80;;
27566;SDS011;15006;48.584;9.186;2023-06-19T10:40:47;2.33;;;1.10;;
27566;SDS011;15006;48.584;9.186;2023-06-19T10:43:19;1.00;;;1.00;;
27566;SDS011;15006;48.584;9.186;2023-06-19T10:45:53;1.15;;;1.02;;
27566;SDS011;15006;48.584;9.186;2023-06-19T10:48:20;1.15;;;0.90;;
27566;SDS011;15006;48.584;9.186;2023-06-19T10:50:50;2.80;;;1.00;;
27566;SDS011;15006;48.584;9.186;2023-06-19T10:53:26;0.95;;;0.95;;
27566;SDS011;15006;48.584;9.186;2023-06-19T10:55:57;0.90;;;0.90;;
27566;SDS011;15006;48.584;9.186;2023-06-19T10:58:25;5.53;;;2.80;;
27566;SDS011;15006;48.584;9.186;2023-06-19T11:00:55;2.38;;;1.55;;
27566;SDS011;15006;48.584;9.186;2023-06-19T11:03:22;1.27;;;1.10;;
27566;SDS011;15006;48.584;9.186;2023-06-19T11:05:48;1.98;;;1.02;;
27566;SDS011;15006;48.584;9.186;2023-06-19T11:08:18;1.00;;;1.00;;
27566;SDS011;15006;48.584;9.186;2023-06-19T11:10:45;1.27;;;1.17;;
27566;SDS011;15006;48.584;9.186;2023-06-19T11:13:15;1.00;;;1.00;;
27566;SDS011;15006;48.584;9.186;2023-06-19T11:15:45;2.15;;;1.10;;
27566;SDS011;15006;48.584;9.186;2023-06-19T11:18:17;1.30;;;1.20;;
27566;SDS011;15006;48.584;9.186;2023-06-19T11:20:47;1.25;;;1.23;;
27566;SDS011;15006;48.584;9.186;2023-06-19T11:23:16;1.20;;;1.20;;
27566;SDS011;15006;48.584;9.186;2023-06-19T11:25:50;1.15;;;1.15;;
27566;SDS011;15006;48.584;9.186;2023-06-19T11:28:16;1.15;;;1.15;;
27566;SDS011;15006;48.584;9.186;2023-06-19T11:30:48;1.17;;;1.17;;
27566;SDS011;15006;48.584;9.186;2023-06-19T11:33:23;1.52;;;1.27;;
27566;SDS011;15006;48.584;9.186;2023-06-19T11:38:20;1.20;;;1.20;;
27566;SDS011;15006;48.584;9.186;2023-06-19T11:40:50;1.75;;;1.10;;
27566;SDS011;15006;48.584;9.186;2023-06-19T11:43:23;1.17;;;1.17;;
27566;SDS011;15006;48.584;9.186;2023-06-19T11:45:59;1.80;;;1.30;;
27566;SDS011;15006;48.584;9.186;2023-06-19T11:48:31;1.25;;;1.23;;
27566;SDS011;15006;48.584;9.186;2023-06-19T11:50:57;1.60;;;1.50;;
27566;SDS011;15006;48.584;9.186;2023-06-19T11:53:24;1.95;;;1.00;;
27566;SDS011;15006;48.584;9.186;2023-06-19T11:55:50;0.82;;;0.82;;
27566;SDS011;15006;48.584;9.186;2023-06-19T11:58:17;1.38;;;1.27;;
27566;SDS011;15006;48.584;9.186;2023-06-19T12:00:45;1.33;;;1.30;;
27566;SDS011;15006;48.584;9.186;2023-06-19T12:03:12;1.30;;;1.20;;
27566;SDS011;15006;48.584;9.186;2023-06-19T12:05:38;1.50;;;1.40;;
27566;SDS011;15006;48.584;9.186;2023-06-19T12:08:04;1.20;;;1.20;;
27566;SDS011;15006;48.584;9.186;2023-06-19T12:10:32;1.00;;;1.00;;
27566;SDS011;15006;48.584;9.186;2023-06-19T12:13:00;1.20;;;1.20;;
27566;SDS011;15006;48.584;9.186;2023-06-19T12:15:27;1.35;;;1.10;;
27566;SDS011;15006;48.584;9.186;2023-06-19T12:17:53;1.40;;;1.30;;
27566;SDS011;15006;48.584;9.186;2023-06-19T12:20:19;1.27;;;1.27;;
27566;SDS011;15006;48.584;9.186;2023-06-19T12:22:45;1.00;;;1.00;;
27566;SDS011;15006;48.584;9.186;2023-06-19T12:25:11;1.30;;;1.30;;
27566;SDS011;15006;48.584;9.186;2023-06-19T12:27:37;1.30;;;1.25;;
27566;SDS011;15006;48.584;9.186;2023-06-19T12:30:04;2.08;;;1.08;;
27566;SDS011;15006;48.584;9.186;2023-06-19T12:32:31;1.48;;;1.38;;
27566;SDS011;15006;48.584;9.186;2023-06-19T12:34:57;1.00;;;1.00;;
27566;SDS011;15006;48.584;9.186;2023-06-19T12:37:23;1.13;;;1.13;;
27566;SDS011;15006;48.584;9.186;2023-06-19T12:39:50;1.50;;;1.40;;
27566;SDS011;15006;48.584;9.186;2023-06-19T12:42:16;1.17;;;1.17;;
27566;SDS011;15006;48.584;9.186;2023-06-19T12:44:43;1.10;;;1.10;;
27566;SDS011;15006;48.584;9.186;2023-06-19T12:47:11;0.90;;;0.90;;
27566;SDS011;15006;48.584;9.186;2023-06-19T12:49:38;1.20;;;1.20;;
27566;SDS011;15006;48.584;9.186;2023-06-19T12:52:04;1.20;;;1.20;;
27566;SDS011;15006;48.584;9.186;2023-06-19T12:54:31;0.90;;;0.90;;
27566;SDS011;15006;48.584;9.186;2023-06-19T12:56:57;1.00;;;1.00;;
27566;SDS011;15006;48.584;9.186;2023-06-19T12:59:23;1.17;;;0.98;;
27566;SDS011;15006;48.584;9.186;2023-06-19T13:01:49;1.40;;;1.30;;
27566;SDS011;15006;48.584;9.186;2023-06-19T13:04:15;1.20;;;1.20;;
27566;SDS011;15006;48.584;9.186;2023-06-19T13:06:41;3.63;;;1.20;;
27566;SDS011;15006;48.584;9.186;2023-06-19T13:09:08;1.02;;;1.02;;
27566;SDS011;15006;48.584;9.186;2023-06-19T13:11:34;1.05;;;1.05;;
27566;SDS011;15006;48.584;9.186;2023-06-19T13:14:00;1.35;;;1.30;;
27566;SDS011;15006;48.584;9.186;2023-06-19T13:16:27;0.90;;;0.90;;
27566;SDS011;15006;48.584;9.186;2023-06-19T13:18:53;0.93;;;0.93;;
27566;SDS011;15006;48.584;9.186;2023-06-19T13:21:19;1.25;;;1.20;;
27566;SDS011;15006;48.584;9.186;2023-06-19T13:23:45;1.00;;;1.00;;
27566;SDS011;15006;48.584;9.186;2023-06-19T13:26:11;1.20;;;1.02;;
27566;SDS011;15006;48.584;9.186;2023-06-19T13:28:37;3.72;;;1.02;;
27566;SDS011;15006;48.584;9.186;2023-06-19T13:31:03;0.95;;;0.95;;
27566;SDS011;15006;48.584;9.186;2023-06-19T13:33:29;0.82;;;0.82;;
27566;SDS011;15006;48.584;9.186;2023-06-19T13:35:55;0.95;;;0.95;;
27566;SDS011;15006;48.584;9.186;2023-06-19T13:38:21;0.90;;;0.90;;
27566;SDS011;15006;48.584;9.186;2023-06-19T13:40:47;1.00;;;1.00;;
27566;SDS011;15006;48.584;9.186;2023-06-19T13:43:13;1.40;;;1.30;;
27566;SDS011;15006;48.584;9.186;2023-06-19T13:45:40;1.00;;;1.00;;
27566;SDS011;15006;48.584;9.186;2023-06-19T13:48:06;1.17;;;1.17;;
27566;SDS011;15006;48.584;9.186;2023-06-19T13:50:32;3.42;;;1.23;;
27566;SDS011;15006;48.584;9.186;2023-06-19T13:52:59;1.85;;;1.00;;
27566;SDS011;15006;48.584;9.186;2023-06-19T13:55:27;1.17;;;1.17;;
27566;SDS011;15006;48.584;9.186;2023-06-19T13:57:53;1.23;;;1.20;;
27566;SDS011;15006;48.584;9.186;2023-06-19T14:00:19;0.90;;;0.90;;
27566;SDS011;15006;48.584;9.186;2023-06-19T14:02:45;1.00;;;1.00;;
27566;SDS011;15006;48.584;9.186;2023-06-19T14:05:11;1.10;;;1.10;;
27566;SDS011;15006;48.584;9.186;2023-06-19T14:07:40;1.02;;;1.02;;
27566;SDS011;15006;48.584;9.186;2023-06-19T14:10:07;1.30;;;1.30;;
27566;SDS011;15006;48.584;9.186;2023-06-19T14:12:34;1.33;;;1.33;;
27566;SDS011;15006;48.584;9.186;2023-06-19T14:15:00;1.92;;;1.50;;
27566;SDS011;15006;48.584;9.186;2023-06-19T14:17:26;1.15;;;1.15;;
27566;SDS011;15006;48.584;9.186;2023-06-19T14:19:52;1.20;;;1.20;;
27566;SDS011;15006;48.584;9.186;2023-06-19T14:22:20;1.20;;;1.20;;
27566;SDS011;15006;48.584;9.186;2023-06-19T14:24:46;2.35;;;1.40;;
27566;SDS011;15006;48.584;9.186;2023-06-19T14:27:12;1.30;;;1.20;;
27566;SDS011;15006;48.584;9.186;2023-06-19T14:29:38;1.40;;;1.40;;
27566;SDS011;15006;48.584;9.186;2023-06-19T14:32:05;1.33;;;1.33;;
27566;SDS011;15006;48.584;9.186;2023-06-19T14:34:31;2.00;;;1.50;;
27566;SDS011;15006;48.584;9.186;2023-06-19T14:36:57;1.48;;;1.48;;
27566;SDS011;15006;48.584;9.186;2023-06-19T14:39:22;1.35;;;1.35;;
27566;SDS011;15006;48.584;9.186;2023-06-19T14:41:48;1.60;;;1.50;;
27566;SDS011;15006;48.584;9.186;2023-06-19T14:44:14;1.40;;;1.40;;
27566;SDS011;15006;48.584;9.186;2023-06-19T14:46:40;1.60;;;1.50;;
27566;SDS011;15006;48.584;9.186;2023-06-19T14:49:06;1.42;;;1.35;;
27566;SDS011;15006;48.584;9.186;2023-06-19T14:51:35;1.42;;;1.42;;
27566;SDS011;15006;48.584;9.186;2023-06-19T14:54:01;1.73;;;1.63;;
27566;SDS011;15006;48.584;9.186;2023-06-19T14:56:28;1.63;;;1.60;;
27566;SDS011;15006;48.584;9.186;2023-06-19T14:58:54;1.52;;;1.50;;
27566;SDS011;15006;48.584;9.186;2023-06-19T15:01:20;1.75;;;1.65;;
27566;SDS011;15006;48.584;9.186;2023-06-19T15:03:46;1.40;;;1.30;;
27566;SDS011;15006;48.584;9.186;2023-06-19T15:06:12;1.70;;;1.60;;
27566;SDS011;15006;48.584;9.186;2023-06-19T15:08:38;1.70;;;1.60;;
27566;SDS011;15006;48.584;9.186;2023-06-19T15:11:04;1.80;;;1.70;;
27566;SDS011;15006;48.584;9.186;2023-06-19T15:13:31;1.40;;;1.40;;
27566;SDS011;15006;48.584;9.186;2023-06-19T15:15:57;3.55;;;1.67;;